Flight Track Log - Related Links

Times and Time Zones

All times are in EDT time to prevent confusion due to time zone crossing. See the EJA929 flight status page for this flight to view local times or setup timezone preferences in your user account.

Time Position Orientation Groundspeed Altitude Reporting Facility
EDT Latitude Longitude Course Direction KTS MPH feet Rate Location/Type
Sun 07:51:33 PM 38.2100 -78.4564 278° West 238 274 4,100  Level Washington Center
Sun 07:52:31 PM 38.2219 -78.5625 278° West 268 308 7,100 2,521 Climbing Washington Center
Sun 07:53:32 PM 38.2258 -78.6603 273° West 280 322 9,100 1,967 Climbing Washington Center
Sun 07:54:33 PM 38.2314 -78.7636 274° West 293 337 11,100 1,934 Climbing Washington Center
Sun 07:55:33 PM 38.2369 -78.8722 274° West 318 366 13,000 1,729 Climbing Washington Center
Sun 07:56:31 PM 38.2417 -78.9994 273° West 344 396 14,500 1,462 Climbing Washington Center
Sun 07:57:32 PM 38.2464 -79.1267 273° West 365 420 15,900 1,550 Climbing Washington Center
Sun 07:58:31 PM 38.2542 -79.2803 274° West 382 440 17,600 1,450 Climbing Washington Center
Sun 07:59:32 PM 38.2603 -79.4181 273° West 393 452 18,800 1,279 Climbing Washington Center
Sun 08:00:33 PM 38.2683 -79.5589 274° West 398 458 20,200 1,388 Climbing Washington Center
Sun 08:01:33 PM 38.2722 -79.6911 272° West 411 473 21,600 1,424 Climbing Washington Center
Sun 08:02:31 PM 38.2794 -79.8397 274° West 417 480 23,000 1,475 Climbing Washington Center
Sun 08:04:32 PM 38.2925 -80.1633 273° West 445 512 26,000 1,525 Climbing Washington Center
Sun 08:05:32 PM 38.2989 -80.3225 273° West 445 512 27,600 1,916 Climbing Washington Center
Sun 08:07:43 PM 38.3111 -80.6600 273° West 445 512 32,100 2,031 Climbing Indianapolis Center
Sun 08:08:44 PM 38.3175 -80.8150 273° West 437 503 34,100 1,854 Climbing Indianapolis Center
Sun 08:09:46 PM 38.3464 -80.9664 284° West 439 505 35,900 1,742 Climbing Indianapolis Center
Sun 08:10:48 PM 38.3942 -81.1108 293° West 441 507 37,700 1,659 Climbing Indianapolis Center
Sun 08:11:49 PM 38.4383 -81.2572 291° West 441 507 39,300 1,122 Climbing Indianapolis Center
Sun 08:12:51 PM 38.4694 -81.4106 285° West 442 509 40,000 919 Climbing Indianapolis Center
Sun 08:13:53 PM 38.5017 -81.5689 285° West 452 520 41,200 1,220 Climbing Indianapolis Center
Sun 08:14:54 PM 38.5328 -81.7222 285° West 441 507 42,500 878 Climbing Indianapolis Center
Sun 08:15:56 PM 38.5633 -81.8731 285° West 435 501 43,000 242 Climbing Indianapolis Center
Sun 08:16:58 PM 38.5950 -82.0286 285° West 445 512 43,000  Level Indianapolis Center
Sun 08:17:59 PM 38.6272 -82.1911 284° West 466 536 43,000  Level Indianapolis Center
Sun 08:19:01 PM 38.6661 -82.3911 284° West 480 552 43,000  Level Indianapolis Center
Sun 08:20:02 PM 38.6975 -82.5589 284° West 484 557 43,000  Level Indianapolis Center
Sun 08:21:04 PM 38.7308 -82.7261 284° West 486 559 43,000  Level Indianapolis Center
Sun 08:22:06 PM 38.7619 -82.8908 284° West 478 550 43,000  Level Indianapolis Center
Sun 08:23:07 PM 38.7931 -83.0572 284° West 480 552 43,000  Level Indianapolis Center
Sun 08:24:09 PM 38.8281 -83.2369 284° West 477 549 43,000  Level Indianapolis Center
Sun 08:25:10 PM 38.8581 -83.4017 283° West 471 542 43,000  Level Indianapolis Center
Sun 08:26:12 PM 38.8881 -83.5656 283° West 467 537 43,000  Level Indianapolis Center
Sun 08:27:14 PM 38.9183 -83.7306 283° West 468 539 43,000  Level Indianapolis Center
Sun 08:28:15 PM 38.9486 -83.8969 283° West 471 542 43,000  Level Indianapolis Center
Sun 08:29:17 PM 38.9778 -84.0628 283° West 470 541 43,000  Level Indianapolis Center
Sun 08:30:18 PM 39.0075 -84.2269 283° West 468 539 43,000  Level Indianapolis Center
Sun 08:31:20 PM 39.0367 -84.3939 283° West 471 542 43,000  Level Indianapolis Center
Sun 08:32:21 PM 39.0658 -84.5647 282° West 479 551 43,000  Level Indianapolis Center
Sun 08:33:23 PM 39.0978 -84.7356 284° West 483 556 43,000  Level Indianapolis Center
Sun 08:34:25 PM 39.1269 -84.9064 282° West 485 558 43,000  Level Indianapolis Center
Sun 08:35:26 PM 39.1558 -85.0761 282° West 486 559 43,000  Level Indianapolis Center
Sun 08:36:28 PM 39.1897 -85.2781 282° West 483 556 43,000  Level Indianapolis Center
Sun 08:37:29 PM 39.2186 -85.4461 283° West 480 552 43,000  Level Indianapolis Center
Sun 08:38:31 PM 39.2450 -85.6150 281° West 479 551 43,000  Level Indianapolis Center
Sun 08:39:32 PM 39.2739 -85.7833 283° West 480 552 43,000  Level Indianapolis Center
Sun 08:40:34 PM 39.3003 -85.9517 282° West 479 551 43,000  Level Indianapolis Center
Sun 08:41:36 PM 39.3283 -86.1211 282° West 480 552 43,000  Level Indianapolis Center
Sun 08:42:37 PM 39.3547 -86.2906 281° West 478 550 43,000  Level Indianapolis Center
Sun 08:43:39 PM 39.3817 -86.4606 282° West 479 551 43,000  Level Indianapolis Center
Sun 08:44:40 PM 39.4083 -86.6286 282° West 475 547 43,000  Level Indianapolis Center
Sun 08:45:42 PM 39.4342 -86.7967 281° West 473 544 43,000  Level Indianapolis Center
Sun 08:47:20 PM 39.4769 -87.0761 281° West 470 541 43,000  Level Kansas City Center
Sun 08:47:45 PM 39.4889 -87.1611 280° West 467 537 43,000  Level Indianapolis Center
Sun 08:48:47 PM 39.5144 -87.3253 281° West 467 537 43,000  Level Indianapolis Center
Sun 08:49:48 PM 39.5394 -87.4911 281° West 469 540 43,000  Level Indianapolis Center
Sun 08:50:50 PM 39.5633 -87.6561 281° West 467 537 43,000  Level Indianapolis Center
Sun 08:51:51 PM 39.5875 -87.8217 281° West 469 540 43,000  Level Indianapolis Center
Sun 08:52:26 PM 39.6019 -87.9353 279° West 467 537 43,000  Level Kansas City Center
Sun 08:53:27 PM 39.6250 -88.1000 280° West 466 536 43,000  Level Kansas City Center
Sun 08:53:55 PM 39.6339 -88.1511 283° West 466 536 43,000  Level Indianapolis Center
Sun 08:54:28 PM 39.6469 -88.2489 280° West 465 535 43,000  Level Kansas City Center
Sun 08:55:30 PM 39.6706 -88.4142 281° West 466 536 43,000  Level Kansas City Center
Sun 08:56:31 PM 39.6950 -88.5775 281° West 463 533 43,000  Level Kansas City Center
Sun 08:57:32 PM 39.7292 -88.7742 283° West 463 533 43,000  Level Kansas City Center
Sun 08:58:33 PM 39.7603 -88.9344 284° West 459 528 43,000  Level Kansas City Center
Sun 08:59:34 PM 39.7903 -89.0969 284° West 461 531 43,000  Level Kansas City Center
Sun 09:00:35 PM 39.8219 -89.2600 284° West 463 533 43,000  Level Kansas City Center
Sun 09:01:37 PM 39.8506 -89.4242 283° West 464 534 43,000  Level Kansas City Center
Sun 09:02:38 PM 39.8817 -89.5889 284° West 466 536 43,000  Level Kansas City Center
Sun 09:03:39 PM 39.9125 -89.7533 284° West 467 537 43,000  Level Kansas City Center
Sun 09:04:40 PM 39.9414 -89.9164 283° West 464 534 43,000  Level Kansas City Center
Sun 09:05:20 PM 39.9594 -90.0150 283° West 461 531 43,000  Level Chicago Center
Sun 09:06:22 PM 39.9881 -90.1769 283° West 457 526 43,000  Level Chicago Center
Sun 09:07:23 PM 40.0239 -90.3725 284° West 462 532 43,000  Level Chicago Center
Sun 09:07:43 PM 40.0292 -90.4050 282° West 458 527 43,000  Level Kansas City Center
Sun 09:08:44 PM 40.0575 -90.5692 283° West 460 529 43,000  Level Kansas City Center
Sun 09:09:45 PM 40.0853 -90.7311 283° West 458 527 43,000  Level Kansas City Center
Sun 09:10:46 PM 40.1131 -90.8961 282° West 461 531 43,000  Level Kansas City Center
Sun 09:11:47 PM 40.1433 -91.0675 283° West 461 531 43,000  Level Kansas City Center
Sun 09:12:48 PM 40.1725 -91.2286 283° West 459 528 43,000  Level Kansas City Center
Sun 09:13:50 PM 40.2450 -91.3661 305° West 466 536 43,000  Level Kansas City Center
Sun 09:14:51 PM 40.3314 -91.5275 305° West 460 529 43,000  Level Kansas City Center
Sun 09:15:34 PM 40.3769 -91.6083 307° West 459 528 43,000  Level Chicago Center
Sun 09:15:52 PM 40.4047 -91.6622 304° West 458 527 43,000  Level Kansas City Center
Sun 09:16:53 PM 40.4808 -91.7989 306° West 463 533 43,000  Level Kansas City Center
Sun 09:17:54 PM 40.5586 -91.9350 307° West 468 539 43,000  Level Kansas City Center
Sun 09:18:55 PM 40.6411 -92.0656 310° West 471 542 43,000  Level Kansas City Center
Sun 09:19:39 PM 40.7097 -92.1694 311° West 475 547 43,000  Level Chicago Center
Sun 09:20:41 PM 40.7964 -92.3000 311° West 478 550 43,000  Level Chicago Center
Sun 09:21:42 PM 40.8808 -92.4322 310° West 478 550 43,000  Level Chicago Center
Sun 09:22:43 PM 40.9697 -92.5636 312° West 483 556 43,000  Level Chicago Center
Sun 09:23:44 PM 41.0531 -92.7428 302° West 484 557 43,000  Level Chicago Center
Sun 09:24:45 PM 41.1408 -92.8747 311° West 491 565 43,000  Level Chicago Center
Sun 09:25:12 PM 41.1817 -92.9236 318° Northwest 496 571 43,000  Level Minneapolis Center
Sun 09:26:14 PM 41.2836 -93.0447 318° Northwest 496 571 43,000  Level Minneapolis Center
Sun 09:27:15 PM 41.3844 -93.1689 317° Northwest 497 572 43,000  Level Minneapolis Center
Sun 09:28:17 PM 41.4742 -93.2997 312° West 489 563 43,000  Level Minneapolis Center
Sun 09:29:19 PM 41.5700 -93.4728 307° West 485 558 43,000 -146 Level Minneapolis Center
Sun 09:30:20 PM 41.6517 -93.6147 308° West 487 560 42,700 -1,122 Descending Minneapolis Center
Sun 09:31:22 PM 41.7231 -93.7744 301° West 504 580 40,700 -1,854 Descending Minneapolis Center
Sun 09:32:23 PM 41.7756 -93.9397 293° West 493 567 38,900 -1,317 Descending Minneapolis Center
Sun 09:33:25 PM 41.7758 -94.1183 270° West 483 556 38,000 -1,839 Descending Minneapolis Center
Sun 09:34:27 PM 41.7481 -94.3278 260° West 480 552 35,100 -3,111 Descending Minneapolis Center
Sun 09:35:40 PM 41.6967 -94.5019 248° West 501 577 31,000 -4,044 Descending Minneapolis Center
Sun 09:36:42 PM 41.6419 -94.7011 250° West 475 547 26,000 -4,452 Descending Minneapolis Center
Sun 09:37:44 PM 41.6003 -94.8483 249° West 428 493 21,800 -4,448 Descending Minneapolis Center
Sun 09:38:38 PM 41.5789 -94.9806 258° West 351 404 17,400 -4,383 Descending Minneapolis Center
Sun 09:39:39 PM 41.5433 -95.0967 248° West 330 380 13,400 -3,273 Descending Minneapolis Center
Sun 09:40:50 PM 41.5025 -95.1972 242° Southwest 316 364 10,200 -1,606 Descending Minneapolis Center
Sun 09:41:46 PM 41.5025 -95.3164 270° West 273 314 10,000 -103 Descending Minneapolis Center
Sun 09:42:46 PM 41.4931 -95.4178 263° West 273 314 10,000 -248 Level Minneapolis Center
Sun 09:43:47 PM 41.4786 -95.5142 259° West 268 308 9,500 -1,359 Descending Minneapolis Center
Sun 09:44:54 PM 41.4567 -95.6197 255° West 250 288 7,100 -2,220 Descending Minneapolis Center
Sun 09:45:54 PM 41.4400 -95.7108 256° West 255 293 4,800 -1,537 Descending Minneapolis Center
Sun 09:46:55 PM 41.4264 -95.7903 257° West 218 251 4,000 -470 Descending Minneapolis Center
Sun 09:47:49 PM 41.4139 -95.8558 256° West 198 228 3,900 -626 Descending Minneapolis Center
Sun 09:48:50 PM 41.3864 -95.9117 237° Southwest 170 196 2,800 -984 Descending Minneapolis Center
Sun 09:49:51 PM 41.3544 -95.9350 209° Southwest 124 143 1,900 -744 Descending Minneapolis Center
Sun 09:50:51 PM 41.3239 -95.9161 155° Southeast 114 131 1,300 -400 Descending Minneapolis Center
Sun 09:52:06 PM 41.2894 -95.8761 139° Southeast 130 150 1,000 -240 Descending Minneapolis Center

Login

Don't have an account? Register now (free) for customized features, flight alerts, and more!